Time;durP1;ratioP1;P1;durP2;ratioP2;P2;SDS_P1;SDS_P2;PMS_P1;PMS_P2;Temp;Humidity;BMP_temperature;BMP_pressure;BME280_temperature;BME280_humidity;BME280_pressure;Samples;Min_cycle;Max_cycle;Signal;HPM_P1;HPM_P2
2024/01/31 00:00:15;;;;;;;7.72;0.95;;;;;;;;;;5039855;28;20292;-74
2024/01/31 00:02:40;;;;;;;5.68;0.90;;;;;;;;;;5021802;28;20205;-74
2024/01/31 00:05:06;;;;;;;6.83;1.10;;;;;;;;;;5043196;28;20190;-74
2024/01/31 00:07:31;;;;;;;7.50;1.00;;;;;;;;;;5039439;28;20265;-74
2024/01/31 00:09:57;;;;;;;5.05;0.57;;;;;;;;;;5043034;28;20194;-74
2024/01/31 00:12:22;;;;;;;6.67;1.20;;;;;;;;;;5038312;28;20347;-74
2024/01/31 00:14:48;;;;;;;6.43;1.03;;;;;;;;;;5040989;28;20218;-74
2024/01/31 00:17:13;;;;;;;5.82;0.68;;;;;;;;;;5030867;28;20657;-74
2024/01/31 00:19:38;;;;;;;6.77;1.00;;;;;;;;;;5036953;28;20650;-74
2024/01/31 00:22:04;;;;;;;5.38;1.52;;;;;;;;;;5035327;28;20190;-74
2024/01/31 00:24:29;;;;;;;6.47;0.83;;;;;;;;;;5039781;28;20186;-74
2024/01/31 00:26:55;;;;;;;10.15;1.35;;;;;;;;;;5031891;28;20531;-75
2024/01/31 00:29:20;;;;;;;4.85;1.00;;;;;;;;;;5038274;28;20185;-75
2024/01/31 00:31:45;;;;;;;5.23;1.93;;;;;;;;;;5037705;28;20428;-75
2024/01/31 00:34:11;;;;;;;3.07;0.90;;;;;;;;;;5041977;28;20685;-75
2024/01/31 00:36:37;;;;;;;9.07;1.10;;;;;;;;;;5033785;28;20618;-75
2024/01/31 00:39:02;;;;;;;5.97;1.37;;;;;;;;;;5022087;28;20194;-75
2024/01/31 00:41:29;;;;;;;3.43;1.10;;;;;;;;;;5035654;28;20190;-74
2024/01/31 00:43:55;;;;;;;5.40;1.30;;;;;;;;;;5034081;28;20213;-75
2024/01/31 00:46:21;;;;;;;9.27;1.40;;;;;;;;;;5033102;28;20202;-74
2024/01/31 00:48:46;;;;;;;8.27;1.33;;;;;;;;;;5040916;28;20583;-74
2024/01/31 00:51:12;;;;;;;6.47;1.30;;;;;;;;;;5042202;28;20272;-74
2024/01/31 00:53:38;;;;;;;4.27;1.13;;;;;;;;;;5045518;28;20637;-75
2024/01/31 00:56:04;;;;;;;5.83;1.50;;;;;;;;;;5050084;28;20193;-75
2024/01/31 00:58:31;;;;;;;4.90;1.60;;;;;;;;;;5047703;28;20507;-74
2024/01/31 01:00:57;;;;;;;8.00;1.40;;;;;;;;;;5039466;28;20216;-74
2024/01/31 01:03:22;;;;;;;8.70;1.50;;;;;;;;;;5053800;28;20189;-74
2024/01/31 01:05:48;;;;;;;4.17;1.27;;;;;;;;;;5035427;28;20530;-74
2024/01/31 01:08:13;;;;;;;11.17;1.50;;;;;;;;;;5039386;28;20654;-74
2024/01/31 01:10:38;;;;;;;5.97;1.30;;;;;;;;;;5031315;28;20189;-75
2024/01/31 01:13:04;;;;;;;4.40;1.37;;;;;;;;;;5048797;28;20205;-75
2024/01/31 01:15:29;;;;;;;5.10;2.00;;;;;;;;;;5042776;28;20262;-75
2024/01/31 01:17:55;;;;;;;9.73;2.00;;;;;;;;;;5045919;28;20256;-75
2024/01/31 01:20:20;;;;;;;7.07;2.07;;;;;;;;;;5032528;28;20213;-76
2024/01/31 01:22:46;;;;;;;3.47;1.60;;;;;;;;;;5050141;28;20647;-75
2024/01/31 01:25:12;;;;;;;8.67;1.83;;;;;;;;;;5041746;28;20682;-76
2024/01/31 01:27:37;;;;;;;7.90;1.80;;;;;;;;;;5029776;28;20232;-75
2024/01/31 01:30:03;;;;;;;8.47;1.83;;;;;;;;;;5036417;28;20185;-76
2024/01/31 01:32:29;;;;;;;5.40;1.73;;;;;;;;;;5043878;28;20208;-75
2024/01/31 01:34:54;;;;;;;5.10;2.00;;;;;;;;;;5044432;28;20218;-74
2024/01/31 01:37:20;;;;;;;6.40;1.90;;;;;;;;;;5037776;28;20204;-75
2024/01/31 01:39:45;;;;;;;7.50;2.60;;;;;;;;;;5043725;28;20194;-74
2024/01/31 01:42:12;;;;;;;7.07;2.07;;;;;;;;;;5030410;28;20190;-74
2024/01/31 01:44:43;;;;;;;8.60;2.00;;;;;;;;;;5049829;28;20194;-74
2024/01/31 01:47:09;;;;;;;6.37;1.83;;;;;;;;;;5029632;28;20181;-74
2024/01/31 01:49:35;;;;;;;6.93;2.30;;;;;;;;;;5027303;28;20178;-74
2024/01/31 01:52:00;;;;;;;5.73;2.07;;;;;;;;;;5044532;28;20197;-74
2024/01/31 01:54:26;;;;;;;10.87;2.43;;;;;;;;;;5045098;28;20213;-74
2024/01/31 01:56:52;;;;;;;6.40;2.20;;;;;;;;;;5038635;28;20201;-74
2024/01/31 01:59:18;;;;;;;6.37;1.87;;;;;;;;;;5036172;28;20269;-74
2024/01/31 02:01:44;;;;;;;7.23;2.27;;;;;;;;;;5030024;28;20964;-74
2024/01/31 02:04:10;;;;;;;8.20;2.57;;;;;;;;;;5046990;28;20185;-74
2024/01/31 02:06:35;;;;;;;5.77;2.43;;;;;;;;;;5032221;28;20212;-74
2024/01/31 02:09:02;;;;;;;4.60;2.00;;;;;;;;;;5038675;28;20388;-74
2024/01/31 02:11:28;;;;;;;6.37;2.40;;;;;;;;;;5040249;28;20311;-74
2024/01/31 02:13:54;;;;;;;5.73;1.90;;;;;;;;;;5031256;28;20665;-74
2024/01/31 02:16:19;;;;;;;5.03;1.90;;;;;;;;;;5039654;28;20427;-74
2024/01/31 02:18:44;;;;;;;4.60;2.30;;;;;;;;;;5031838;28;20431;-74
2024/01/31 02:21:10;;;;;;;6.30;1.80;;;;;;;;;;5033388;28;20614;-74
2024/01/31 02:23:35;;;;;;;7.20;2.40;;;;;;;;;;5028932;28;20186;-74
2024/01/31 02:26:01;;;;;;;5.43;1.80;;;;;;;;;;5044687;28;20293;-75
2024/01/31 02:28:26;;;;;;;4.90;2.10;;;;;;;;;;5037710;28;20605;-73
2024/01/31 02:30:52;;;;;;;5.93;1.97;;;;;;;;;;5016748;28;20248;-74
2024/01/31 02:33:17;;;;;;;5.93;2.17;;;;;;;;;;5029428;28;20218;-75
2024/01/31 02:35:43;;;;;;;5.63;1.90;;;;;;;;;;5028389;28;20194;-74
2024/01/31 02:38:08;;;;;;;6.23;2.00;;;;;;;;;;5040354;28;20192;-74
2024/01/31 02:40:34;;;;;;;4.93;1.90;;;;;;;;;;5045517;28;20181;-75
2024/01/31 02:42:59;;;;;;;8.10;1.90;;;;;;;;;;5038585;28;20240;-74
2024/01/31 02:45:25;;;;;;;5.50;2.10;;;;;;;;;;5036545;28;20186;-74
2024/01/31 02:47:50;;;;;;;7.03;2.00;;;;;;;;;;5035110;28;20189;-74
2024/01/31 02:50:16;;;;;;;8.53;2.47;;;;;;;;;;5044542;28;20739;-74
2024/01/31 02:52:41;;;;;;;8.20;2.23;;;;;;;;;;5041859;28;20580;-73
2024/01/31 02:55:07;;;;;;;8.30;2.20;;;;;;;;;;5027685;28;20626;-74
2024/01/31 02:57:34;;;;;;;4.80;2.00;;;;;;;;;;5030777;28;20325;-74
2024/01/31 03:00:00;;;;;;;3.43;1.73;;;;;;;;;;5030687;28;20182;-74
2024/01/31 03:02:26;;;;;;;3.77;1.80;;;;;;;;;;5024361;28;20551;-74
2024/01/31 03:04:51;;;;;;;4.50;2.03;;;;;;;;;;5033761;28;20684;-74
2024/01/31 03:07:17;;;;;;;5.67;1.70;;;;;;;;;;5037273;28;20201;-74
2024/01/31 03:09:43;;;;;;;6.90;1.57;;;;;;;;;;5029626;28;20383;-74
2024/01/31 03:12:08;;;;;;;3.90;1.80;;;;;;;;;;5047522;28;20196;-74
2024/01/31 03:14:34;;;;;;;4.23;1.60;;;;;;;;;;5047289;28;20213;-74
2024/01/31 03:17:00;;;;;;;2.70;1.27;;;;;;;;;;5037206;28;20754;-74
2024/01/31 03:19:30;;;;;;;3.70;1.77;;;;;;;;;;5036799;28;20209;-74
2024/01/31 03:21:55;;;;;;;2.37;1.57;;;;;;;;;;5040321;28;20197;-74
2024/01/31 03:24:25;;;;;;;4.67;1.60;;;;;;;;;;5036666;28;20182;-74
2024/01/31 03:26:51;;;;;;;5.50;1.50;;;;;;;;;;5027638;28;20252;-74
2024/01/31 03:29:17;;;;;;;5.03;1.70;;;;;;;;;;5041081;28;20225;-74
2024/01/31 03:31:42;;;;;;;14.83;3.07;;;;;;;;;;5042727;28;20208;-74
2024/01/31 03:34:08;;;;;;;4.27;1.93;;;;;;;;;;5039811;28;20206;-74
2024/01/31 03:36:33;;;;;;;8.20;1.97;;;;;;;;;;5028941;28;20420;-73
2024/01/31 03:38:59;;;;;;;3.20;1.80;;;;;;;;;;5029762;28;20229;-73
2024/01/31 03:41:26;;;;;;;6.60;1.60;;;;;;;;;;5030151;28;20209;-73
2024/01/31 03:43:51;;;;;;;7.27;1.90;;;;;;;;;;5042332;28;20181;-73
2024/01/31 03:46:17;;;;;;;3.43;1.40;;;;;;;;;;5049083;28;20260;-73
2024/01/31 03:48:43;;;;;;;3.70;1.77;;;;;;;;;;5040653;28;20611;-73
2024/01/31 03:51:19;;;;;;;4.00;1.97;;;;;;;;;;5043591;28;20244;-73
2024/01/31 03:53:45;;;;;;;5.87;1.93;;;;;;;;;;5037838;28;20204;-73
2024/01/31 03:56:11;;;;;;;5.33;1.60;;;;;;;;;;5034661;28;20297;-73
2024/01/31 03:58:36;;;;;;;6.13;1.73;;;;;;;;;;5038102;28;20284;-73
2024/01/31 04:01:02;;;;;;;4.70;1.70;;;;;;;;;;5041970;28;20265;-73
2024/01/31 04:03:27;;;;;;;13.53;2.17;;;;;;;;;;5049232;28;20181;-73
2024/01/31 04:05:54;;;;;;;3.50;1.43;;;;;;;;;;5045710;28;20236;-73
2024/01/31 04:08:19;;;;;;;4.93;1.83;;;;;;;;;;5032773;28;20272;-73
2024/01/31 04:10:45;;;;;;;8.17;1.80;;;;;;;;;;5037089;28;20588;-73
2024/01/31 04:13:11;;;;;;;4.10;1.60;;;;;;;;;;5045989;28;20301;-73
2024/01/31 04:15:37;;;;;;;5.53;1.53;;;;;;;;;;5046082;28;20296;-73
2024/01/31 04:18:03;;;;;;;7.53;1.33;;;;;;;;;;5046300;28;20277;-73
2024/01/31 04:20:28;;;;;;;3.97;1.80;;;;;;;;;;5037392;28;20193;-73
2024/01/31 04:22:54;;;;;;;5.00;1.73;;;;;;;;;;5046799;28;20208;-73
2024/01/31 04:25:19;;;;;;;6.90;2.00;;;;;;;;;;5037642;28;20185;-73
2024/01/31 04:27:45;;;;;;;7.57;1.60;;;;;;;;;;5021977;28;20194;-73
2024/01/31 04:30:11;;;;;;;5.73;1.80;;;;;;;;;;5034758;28;20189;-73
2024/01/31 04:32:36;;;;;;;7.30;2.30;;;;;;;;;;5032829;28;20189;-73
2024/01/31 04:35:02;;;;;;;6.73;2.33;;;;;;;;;;5050771;28;20725;-73
2024/01/31 04:37:27;;;;;;;5.50;1.87;;;;;;;;;;5034010;28;20181;-73
2024/01/31 04:39:53;;;;;;;6.03;1.90;;;;;;;;;;5031721;28;20196;-73
2024/01/31 04:42:18;;;;;;;6.73;2.13;;;;;;;;;;5038576;28;20587;-73
2024/01/31 04:44:45;;;;;;;6.53;2.37;;;;;;;;;;5049524;28;20196;-73
2024/01/31 04:47:11;;;;;;;6.40;2.23;;;;;;;;;;5033873;28;20273;-73
2024/01/31 04:49:37;;;;;;;5.83;2.30;;;;;;;;;;5049548;28;20272;-73
2024/01/31 04:52:02;;;;;;;5.67;2.80;;;;;;;;;;5047657;28;20189;-73
2024/01/31 04:54:28;;;;;;;4.17;1.87;;;;;;;;;;5018748;28;20216;-73
2024/01/31 04:56:53;;;;;;;6.83;2.30;;;;;;;;;;5037424;28;20200;-73
2024/01/31 04:59:19;;;;;;;8.77;2.67;;;;;;;;;;5048777;28;20224;-73
2024/01/31 05:01:45;;;;;;;7.97;2.50;;;;;;;;;;5037702;28;20193;-73
2024/01/31 05:04:10;;;;;;;7.07;2.63;;;;;;;;;;5034016;28;20272;-73
2024/01/31 05:06:36;;;;;;;7.97;2.47;;;;;;;;;;5034229;28;20182;-73
2024/01/31 05:09:01;;;;;;;5.10;2.42;;;;;;;;;;5037113;28;20662;-73
2024/01/31 05:11:26;;;;;;;7.90;2.57;;;;;;;;;;5040613;28;20670;-73
2024/01/31 05:13:52;;;;;;;9.30;2.90;;;;;;;;;;5034243;28;20701;-73
2024/01/31 05:16:17;;;;;;;9.20;3.03;;;;;;;;;;5045108;28;20528;-73
2024/01/31 05:18:43;;;;;;;8.00;2.80;;;;;;;;;;5038741;28;20285;-74
2024/01/31 05:21:10;;;;;;;13.60;2.83;;;;;;;;;;5047222;28;20212;-73
2024/01/31 05:23:36;;;;;;;10.00;2.87;;;;;;;;;;5039008;28;20186;-74
2024/01/31 05:26:07;;;;;;;6.00;2.20;;;;;;;;;;5034000;28;20184;-74
2024/01/31 05:28:33;;;;;;;9.83;2.40;;;;;;;;;;5046813;28;20240;-73
2024/01/31 05:30:58;;;;;;;8.20;2.30;;;;;;;;;;5036903;28;20238;-73
2024/01/31 05:33:23;;;;;;;6.40;2.47;;;;;;;;;;5033187;28;20290;-73
2024/01/31 05:35:49;;;;;;;10.20;2.93;;;;;;;;;;5035505;28;20181;-74
2024/01/31 05:38:14;;;;;;;11.13;2.90;;;;;;;;;;5050829;28;20193;-73
2024/01/31 05:40:42;;;;;;;11.30;3.23;;;;;;;;;;5035373;28;20564;-73
2024/01/31 05:43:08;;;;;;;4.83;2.90;;;;;;;;;;5042057;28;20271;-73
2024/01/31 05:45:35;;;;;;;9.27;3.30;;;;;;;;;;5028560;28;20190;-73
2024/01/31 05:48:01;;;;;;;10.53;3.20;;;;;;;;;;5040532;28;20197;-73
2024/01/31 05:50:27;;;;;;;6.37;3.00;;;;;;;;;;5046973;28;20207;-73
2024/01/31 05:52:53;;;;;;;11.70;3.43;;;;;;;;;;5041555;28;20558;-73
2024/01/31 05:55:18;;;;;;;7.30;3.23;;;;;;;;;;5033504;28;20791;-73
2024/01/31 05:57:50;;;;;;;5.30;3.00;;;;;;;;;;5028603;28;20278;-73
2024/01/31 06:00:16;;;;;;;10.80;3.73;;;;;;;;;;5039142;28;20189;-73
2024/01/31 06:02:42;;;;;;;6.53;3.30;;;;;;;;;;5036030;28;20219;-73
2024/01/31 06:05:08;;;;;;;12.83;4.00;;;;;;;;;;5041197;28;20209;-73
2024/01/31 06:07:33;;;;;;;11.63;3.83;;;;;;;;;;5051513;28;20241;-73
2024/01/31 06:09:59;;;;;;;8.27;3.73;;;;;;;;;;5032204;28;20200;-73
2024/01/31 06:12:24;;;;;;;13.07;4.40;;;;;;;;;;5030293;28;20185;-73
2024/01/31 06:14:50;;;;;;;12.07;4.30;;;;;;;;;;5042702;28;20758;-73
2024/01/31 06:17:17;;;;;;;10.53;4.43;;;;;;;;;;5027981;28;20264;-73
2024/01/31 06:19:43;;;;;;;11.50;4.40;;;;;;;;;;5040442;28;20220;-73
2024/01/31 06:22:08;;;;;;;10.93;4.03;;;;;;;;;;5026933;28;20290;-73
2024/01/31 06:24:33;;;;;;;9.00;4.17;;;;;;;;;;5039644;28;20189;-73
2024/01/31 06:26:59;;;;;;;6.90;3.90;;;;;;;;;;5030586;28;20263;-73
2024/01/31 06:29:24;;;;;;;8.90;4.30;;;;;;;;;;5035203;28;20193;-73
2024/01/31 06:31:51;;;;;;;9.17;4.17;;;;;;;;;;5033166;28;20594;-73
2024/01/31 06:34:17;;;;;;;9.47;3.90;;;;;;;;;;5037546;28;20278;-73
2024/01/31 06:36:44;;;;;;;6.60;3.30;;;;;;;;;;5050649;28;20276;-73
2024/01/31 06:39:09;;;;;;;10.37;3.57;;;;;;;;;;5040425;28;20190;-73
2024/01/31 06:41:36;;;;;;;8.57;3.28;;;;;;;;;;5034307;28;20204;-74
2024/01/31 06:44:02;;;;;;;7.32;3.00;;;;;;;;;;5034697;28;20363;-74
2024/01/31 06:46:28;;;;;;;10.18;3.13;;;;;;;;;;5043298;28;20266;-74
2024/01/31 06:48:54;;;;;;;8.55;3.70;;;;;;;;;;5047276;28;20243;-74
2024/01/31 06:51:19;;;;;;;8.35;3.28;;;;;;;;;;5046447;28;20189;-74
2024/01/31 06:53:44;;;;;;;8.25;3.83;;;;;;;;;;5032827;28;20205;-74
2024/01/31 06:56:17;;;;;;;8.10;3.60;;;;;;;;;;5032332;28;20189;-74
2024/01/31 06:58:52;;;;;;;7.23;4.00;;;;;;;;;;5044510;28;20185;-74
2024/01/31 07:01:18;;;;;;;9.87;4.80;;;;;;;;;;5041573;28;20672;-74
2024/01/31 07:03:44;;;;;;;9.67;3.60;;;;;;;;;;5039366;28;20178;-74
2024/01/31 07:06:11;;;;;;;7.50;3.70;;;;;;;;;;5025850;28;20190;-74
2024/01/31 07:08:38;;;;;;;6.97;3.20;;;;;;;;;;5043025;28;20584;-74
2024/01/31 07:11:07;;;;;;;10.70;4.03;;;;;;;;;;5030611;28;20740;-74
2024/01/31 07:13:33;;;;;;;7.20;3.20;;;;;;;;;;5032790;28;20259;-74
2024/01/31 07:15:58;;;;;;;6.70;3.27;;;;;;;;;;5044226;28;20182;-74
2024/01/31 07:18:24;;;;;;;6.60;3.00;;;;;;;;;;5047408;28;20284;-74
2024/01/31 07:20:50;;;;;;;10.10;3.83;;;;;;;;;;5053120;28;20322;-74
2024/01/31 07:23:15;;;;;;;9.77;2.43;;;;;;;;;;5050910;28;20252;-74
2024/01/31 07:25:40;;;;;;;5.87;2.90;;;;;;;;;;5050946;28;20192;-74
2024/01/31 07:28:07;;;;;;;5.43;3.17;;;;;;;;;;5035327;28;20178;-74
2024/01/31 07:30:32;;;;;;;10.40;3.30;;;;;;;;;;5048318;28;20216;-74
2024/01/31 07:32:58;;;;;;;14.13;4.00;;;;;;;;;;5058607;28;20621;-74
2024/01/31 07:35:24;;;;;;;6.83;3.67;;;;;;;;;;5050853;28;20308;-74
2024/01/31 07:37:50;;;;;;;5.73;3.77;;;;;;;;;;5040428;28;20225;-74
2024/01/31 07:40:16;;;;;;;5.60;2.93;;;;;;;;;;5036470;28;20529;-74
2024/01/31 07:42:41;;;;;;;10.00;3.33;;;;;;;;;;5039864;28;20209;-75
2024/01/31 07:45:08;;;;;;;7.27;2.90;;;;;;;;;;5045129;28;20220;-74
2024/01/31 07:47:36;;;;;;;8.60;3.40;;;;;;;;;;5030833;28;20201;-74
2024/01/31 07:50:04;;;;;;;8.50;3.37;;;;;;;;;;5031352;28;20264;-74
2024/01/31 07:52:29;;;;;;;6.20;3.20;;;;;;;;;;5047261;28;20209;-74
2024/01/31 07:54:55;;;;;;;10.73;3.93;;;;;;;;;;5032048;28;20214;-74
2024/01/31 07:57:20;;;;;;;6.80;3.30;;;;;;;;;;5034638;28;20186;-74
2024/01/31 07:59:46;;;;;;;6.87;3.57;;;;;;;;;;5043014;28;20231;-74
2024/01/31 08:02:11;;;;;;;6.33;2.63;;;;;;;;;;5047444;28;20232;-74
2024/01/31 08:04:37;;;;;;;9.43;3.20;;;;;;;;;;5025390;28;20177;-74
2024/01/31 08:07:02;;;;;;;8.20;3.03;;;;;;;;;;5036241;28;20268;-74
2024/01/31 08:09:28;;;;;;;8.90;3.23;;;;;;;;;;5041011;28;20220;-73
2024/01/31 08:11:55;;;;;;;6.27;3.00;;;;;;;;;;5045008;28;20205;-73
2024/01/31 08:14:21;;;;;;;5.93;2.60;;;;;;;;;;5042293;28;20232;-73
2024/01/31 08:16:49;;;;;;;6.37;2.90;;;;;;;;;;5047003;28;20692;-73
2024/01/31 08:19:14;;;;;;;8.27;3.00;;;;;;;;;;5038758;28;20213;-73
2024/01/31 08:21:39;;;;;;;7.90;2.80;;;;;;;;;;5049327;28;20181;-73
2024/01/31 08:24:05;;;;;;;6.40;3.33;;;;;;;;;;5053716;28;20229;-73
2024/01/31 08:26:30;;;;;;;6.67;2.70;;;;;;;;;;5035323;28;20629;-74
2024/01/31 08:28:56;;;;;;;5.67;2.73;;;;;;;;;;5041280;28;20190;-74
2024/01/31 08:31:22;;;;;;;6.70;3.00;;;;;;;;;;5047675;28;20212;-73
2024/01/31 08:33:48;;;;;;;3.67;2.53;;;;;;;;;;5035437;28;20277;-73
2024/01/31 08:36:13;;;;;;;4.50;2.50;;;;;;;;;;5037149;28;20204;-73
2024/01/31 08:38:43;;;;;;;5.73;2.30;;;;;;;;;;5046546;28;20181;-73
2024/01/31 08:41:11;;;;;;;6.23;2.40;;;;;;;;;;5042864;28;20235;-74
2024/01/31 08:43:36;;;;;;;7.63;2.37;;;;;;;;;;5056124;28;20190;-73
2024/01/31 08:46:02;;;;;;;8.57;2.63;;;;;;;;;;5038580;28;20202;-73
2024/01/31 08:48:27;;;;;;;4.47;2.27;;;;;;;;;;5039125;28;20202;-73
2024/01/31 08:50:53;;;;;;;7.35;2.70;;;;;;;;;;5035275;28;20649;-74
2024/01/31 08:53:18;;;;;;;8.23;3.10;;;;;;;;;;5052526;28;20219;-73
2024/01/31 08:55:44;;;;;;;4.80;2.57;;;;;;;;;;5037590;28;20190;-73
2024/01/31 08:58:09;;;;;;;4.15;2.38;;;;;;;;;;5043247;28;20259;-73
2024/01/31 09:00:35;;;;;;;3.95;2.47;;;;;;;;;;5034425;28;20197;-73
2024/01/31 09:03:00;;;;;;;4.30;2.35;;;;;;;;;;4329143;28;10000672;-73
2024/01/31 09:05:26;;;;;;;5.53;2.45;;;;;;;;;;5037908;28;20209;-74
2024/01/31 09:07:53;;;;;;;6.00;2.90;;;;;;;;;;5029414;28;20186;-73
2024/01/31 09:10:19;;;;;;;6.82;2.85;;;;;;;;;;5031684;28;20209;-73
2024/01/31 09:12:44;;;;;;;4.82;3.40;;;;;;;;;;5012693;28;20301;-74
2024/01/31 09:15:10;;;;;;;4.60;2.70;;;;;;;;;;5033976;28;20252;-73
2024/01/31 09:17:35;;;;;;;9.13;2.97;;;;;;;;;;5029331;28;20666;-73
2024/01/31 09:20:01;;;;;;;8.30;2.72;;;;;;;;;;5029698;28;20214;-73
2024/01/31 09:22:26;;;;;;;4.13;2.85;;;;;;;;;;5032811;28;20601;-73
2024/01/31 09:24:52;;;;;;;5.43;3.13;;;;;;;;;;5040106;28;20222;-74
2024/01/31 09:27:19;;;;;;;8.45;2.70;;;;;;;;;;5038667;28;20204;-74
2024/01/31 09:29:46;;;;;;;3.85;2.72;;;;;;;;;;5060515;28;20189;-75
2024/01/31 09:32:14;;;;;;;6.38;3.10;;;;;;;;;;5015074;28;20223;-74
2024/01/31 09:34:40;;;;;;;6.47;3.17;;;;;;;;;;5038296;28;20267;-75
2024/01/31 09:37:06;;;;;;;6.80;3.17;;;;;;;;;;5041226;28;20521;-74
2024/01/31 09:39:31;;;;;;;7.95;3.25;;;;;;;;;;5034906;28;20221;-74
2024/01/31 09:41:57;;;;;;;8.93;3.17;;;;;;;;;;5032253;28;20197;-74
2024/01/31 09:44:24;;;;;;;6.18;3.33;;;;;;;;;;5036657;28;20249;-75
2024/01/31 09:46:52;;;;;;;8.68;3.05;;;;;;;;;;5033325;28;20194;-74
2024/01/31 09:49:18;;;;;;;7.22;3.03;;;;;;;;;;5028531;28;20186;-74
2024/01/31 09:51:43;;;;;;;6.47;3.38;;;;;;;;;;5032111;28;20201;-74
2024/01/31 09:54:09;;;;;;;8.00;3.95;;;;;;;;;;5018119;28;20306;-74
2024/01/31 09:56:36;;;;;;;6.40;3.40;;;;;;;;;;5038086;28;20282;-74
2024/01/31 09:59:03;;;;;;;6.05;4.00;;;;;;;;;;5029364;28;20197;-74
2024/01/31 10:01:29;;;;;;;6.35;3.83;;;;;;;;;;5034575;28;20280;-74
2024/01/31 10:03:57;;;;;;;5.05;3.95;;;;;;;;;;5036662;28;20193;-74
2024/01/31 10:06:29;;;;;;;6.43;3.97;;;;;;;;;;5035935;28;20228;-74
2024/01/31 10:08:57;;;;;;;5.78;3.28;;;;;;;;;;5027753;28;20242;-74
2024/01/31 10:11:24;;;;;;;5.03;3.97;;;;;;;;;;5027979;28;20198;-74
2024/01/31 10:13:50;;;;;;;8.45;4.25;;;;;;;;;;5030062;28;20575;-74
2024/01/31 10:16:15;;;;;;;7.57;4.43;;;;;;;;;;5038718;28;20190;-75
2024/01/31 10:18:41;;;;;;;6.93;5.13;;;;;;;;;;5038720;28;20420;-75
2024/01/31 10:21:06;;;;;;;9.57;4.45;;;;;;;;;;5040629;28;20292;-74
2024/01/31 10:23:32;;;;;;;6.30;4.22;;;;;;;;;;5039208;28;20194;-75
2024/01/31 10:25:57;;;;;;;7.25;5.03;;;;;;;;;;5036761;28;20262;-74
2024/01/31 10:28:23;;;;;;;10.73;4.95;;;;;;;;;;5032181;28;20198;-74
2024/01/31 10:30:49;;;;;;;6.80;4.45;;;;;;;;;;5035454;28;20225;-74
2024/01/31 10:33:15;;;;;;;5.68;4.65;;;;;;;;;;5030827;28;20293;-74
2024/01/31 10:35:45;;;;;;;8.52;5.50;;;;;;;;;;5034325;28;20275;-73
2024/01/31 10:38:13;;;;;;;7.90;5.13;;;;;;;;;;5031364;28;20197;-73
2024/01/31 10:40:40;;;;;;;8.00;5.20;;;;;;;;;;5037338;28;20183;-72
2024/01/31 10:43:08;;;;;;;7.70;5.63;;;;;;;;;;5043008;28;20727;-73
2024/01/31 10:45:34;;;;;;;9.02;5.60;;;;;;;;;;5032507;28;20181;-73
2024/01/31 10:48:02;;;;;;;7.97;5.53;;;;;;;;;;5044147;28;20722;-73
2024/01/31 10:50:28;;;;;;;11.32;5.80;;;;;;;;;;5038619;28;20189;-73
2024/01/31 10:52:54;;;;;;;7.93;5.28;;;;;;;;;;5030680;28;20193;-73
2024/01/31 10:55:22;;;;;;;9.48;5.88;;;;;;;;;;5032068;28;20212;-73
2024/01/31 10:57:48;;;;;;;7.50;5.53;;;;;;;;;;5036885;28;20193;-74
2024/01/31 11:00:25;;;;;;;7.55;5.85;;;;;;;;;;5048298;28;20196;-74
2024/01/31 11:02:51;;;;;;;8.88;5.32;;;;;;;;;;5046580;28;20193;-73
2024/01/31 11:05:16;;;;;;;10.63;5.57;;;;;;;;;;5038817;28;20181;-74
2024/01/31 11:07:46;;;;;;;6.80;5.40;;;;;;;;;;5028482;28;20276;-73
2024/01/31 11:10:15;;;;;;;6.50;5.22;;;;;;;;;;5039009;28;20527;-74
2024/01/31 11:12:41;;;;;;;8.35;5.07;;;;;;;;;;5045330;28;20185;-73
2024/01/31 11:15:07;;;;;;;6.55;4.72;;;;;;;;;;5030235;28;20284;-73
2024/01/31 11:17:34;;;;;;;7.65;4.88;;;;;;;;;;5026215;28;20655;-74
2024/01/31 11:20:01;;;;;;;6.72;4.80;;;;;;;;;;5030286;28;20205;-73
2024/01/31 11:22:28;;;;;;;10.45;5.80;;;;;;;;;;5011977;28;20189;-73
2024/01/31 11:24:58;;;;;;;7.88;4.85;;;;;;;;;;5046117;28;20309;-73
2024/01/31 11:27:24;;;;;;;8.77;5.95;;;;;;;;;;5026929;28;20221;-74
2024/01/31 11:29:53;;;;;;;7.13;5.55;;;;;;;;;;5027546;28;20201;-74
2024/01/31 11:32:19;;;;;;;8.77;5.30;;;;;;;;;;5038873;28;20678;-74
2024/01/31 11:34:45;;;;;;;6.40;5.45;;;;;;;;;;5043359;28;20213;-73
2024/01/31 11:37:10;;;;;;;6.85;5.13;;;;;;;;;;5035844;28;20194;-74
2024/01/31 11:39:36;;;;;;;7.18;5.38;;;;;;;;;;5040092;28;20240;-74
2024/01/31 11:42:02;;;;;;;7.53;5.32;;;;;;;;;;5043598;28;20193;-74
2024/01/31 11:44:30;;;;;;;9.02;4.88;;;;;;;;;;5035795;28;20182;-74
2024/01/31 11:46:56;;;;;;;5.72;4.50;;;;;;;;;;5044065;28;20277;-75
2024/01/31 11:49:22;;;;;;;6.47;5.03;;;;;;;;;;5038480;28;20724;-75
2024/01/31 11:51:48;;;;;;;6.22;5.13;;;;;;;;;;5046004;28;20193;-74
2024/01/31 11:54:14;;;;;;;10.43;4.53;;;;;;;;;;5047499;28;20710;-74
2024/01/31 11:56:39;;;;;;;7.13;4.75;;;;;;;;;;5044363;28;20220;-74
2024/01/31 11:59:05;;;;;;;6.40;4.40;;;;;;;;;;5047533;28;20656;-74
2024/01/31 12:01:31;;;;;;;5.03;4.28;;;;;;;;;;5010155;28;20221;-74
2024/01/31 12:03:57;;;;;;;6.80;4.78;;;;;;;;;;5038705;28;20538;-75
2024/01/31 12:06:22;;;;;;;7.35;4.80;;;;;;;;;;5044084;28;20224;-74
2024/01/31 12:08:49;;;;;;;8.35;4.80;;;;;;;;;;5047633;28;20242;-74
2024/01/31 12:11:18;;;;;;;8.20;5.18;;;;;;;;;;5030142;28;20193;-74
2024/01/31 12:13:44;;;;;;;7.55;4.88;;;;;;;;;;5035728;28;20231;-75
2024/01/31 12:16:10;;;;;;;8.70;4.93;;;;;;;;;;5054449;28;20230;-75
2024/01/31 12:18:36;;;;;;;7.85;4.95;;;;;;;;;;5037680;28;20597;-75
2024/01/31 12:21:02;;;;;;;5.32;4.70;;;;;;;;;;5038113;28;20212;-75
2024/01/31 12:23:29;;;;;;;7.07;4.93;;;;;;;;;;5047039;28;20656;-75
2024/01/31 12:25:55;;;;;;;7.53;5.47;;;;;;;;;;5031957;28;20324;-75
2024/01/31 12:28:20;;;;;;;8.88;4.97;;;;;;;;;;5044668;28;20238;-74
2024/01/31 12:30:46;;;;;;;8.88;5.00;;;;;;;;;;5047860;28;20189;-74
2024/01/31 12:33:11;;;;;;;9.45;5.78;;;;;;;;;;5046464;28;20194;-75
2024/01/31 12:35:37;;;;;;;10.05;5.40;;;;;;;;;;5034170;28;20193;-76
2024/01/31 12:38:02;;;;;;;9.70;5.38;;;;;;;;;;5019660;28;20190;-75
2024/01/31 12:40:28;;;;;;;10.10;5.45;;;;;;;;;;5040638;28;20646;-75
2024/01/31 12:42:54;;;;;;;10.32;5.57;;;;;;;;;;5034373;28;20233;-75
2024/01/31 12:45:19;;;;;;;12.02;6.03;;;;;;;;;;5041756;28;20243;-75
2024/01/31 12:47:45;;;;;;;10.95;5.68;;;;;;;;;;5028508;28;20591;-74
2024/01/31 12:50:10;;;;;;;11.52;5.93;;;;;;;;;;5036888;28;20343;-74
2024/01/31 12:52:36;;;;;;;12.05;6.28;;;;;;;;;;5028306;28;20232;-74
2024/01/31 12:55:01;;;;;;;12.50;6.30;;;;;;;;;;5036206;28;20220;-75
2024/01/31 12:57:27;;;;;;;8.70;6.03;;;;;;;;;;5038134;28;20181;-74
2024/01/31 12:59:52;;;;;;;11.70;6.55;;;;;;;;;;5027699;28;20221;-74
2024/01/31 13:02:18;;;;;;;10.00;6.57;;;;;;;;;;5034460;28;20189;-74
2024/01/31 13:04:43;;;;;;;14.30;7.50;;;;;;;;;;5017629;28;20181;-74
2024/01/31 13:07:09;;;;;;;13.48;7.57;;;;;;;;;;5032771;28;20236;-75
2024/01/31 13:09:34;;;;;;;12.98;7.25;;;;;;;;;;5044435;28;20190;-74
2024/01/31 13:12:00;;;;;;;10.80;7.13;;;;;;;;;;5032066;28;20193;-75
2024/01/31 13:14:25;;;;;;;14.15;7.55;;;;;;;;;;5039838;28;20735;-75
2024/01/31 13:16:51;;;;;;;15.30;8.02;;;;;;;;;;5032292;28;20614;-74
2024/01/31 13:19:20;;;;;;;16.02;7.68;;;;;;;;;;5045828;28;20216;-75
2024/01/31 13:21:49;;;;;;;14.82;8.23;;;;;;;;;;5029255;28;20188;-75
2024/01/31 13:24:15;;;;;;;12.82;7.22;;;;;;;;;;5030537;28;20190;-75
2024/01/31 13:26:40;;;;;;;13.13;7.68;;;;;;;;;;5046482;28;20584;-74
2024/01/31 13:29:06;;;;;;;12.68;7.57;;;;;;;;;;5054442;28;20244;-75
2024/01/31 13:31:31;;;;;;;15.82;7.78;;;;;;;;;;5044010;28;20523;-75
2024/01/31 13:33:57;;;;;;;13.07;8.52;;;;;;;;;;5042589;28;20244;-75
2024/01/31 13:36:24;;;;;;;11.35;6.65;;;;;;;;;;5030216;28;20234;-75
2024/01/31 13:38:50;;;;;;;15.95;8.10;;;;;;;;;;5026639;28;20186;-75
2024/01/31 13:41:16;;;;;;;16.15;8.80;;;;;;;;;;5037631;28;20194;-74
2024/01/31 13:43:42;;;;;;;15.10;7.72;;;;;;;;;;5045580;28;20193;-75
2024/01/31 13:46:07;;;;;;;14.32;7.85;;;;;;;;;;5043878;28;20189;-75
2024/01/31 13:48:32;;;;;;;15.07;8.48;;;;;;;;;;5030747;28;20607;-75
2024/01/31 13:50:58;;;;;;;11.32;7.40;;;;;;;;;;5029577;28;20239;-74
2024/01/31 13:53:24;;;;;;;11.75;8.35;;;;;;;;;;5020734;28;20181;-74
2024/01/31 13:55:49;;;;;;;13.50;8.00;;;;;;;;;;5017139;28;20624;-75
2024/01/31 13:58:15;;;;;;;13.30;8.40;;;;;;;;;;5030816;28;20186;-74
2024/01/31 14:00:41;;;;;;;13.98;8.60;;;;;;;;;;5028148;28;20190;-75
2024/01/31 14:03:07;;;;;;;14.10;9.18;;;;;;;;;;5040827;28;20557;-74
2024/01/31 14:05:32;;;;;;;14.90;9.25;;;;;;;;;;5043695;28;20191;-74
2024/01/31 14:07:58;;;;;;;17.52;9.20;;;;;;;;;;5040247;28;20243;-75
2024/01/31 14:10:23;;;;;;;15.30;10.13;;;;;;;;;;5036193;28;20606;-73
2024/01/31 14:12:48;;;;;;;16.00;10.63;;;;;;;;;;5030199;28;20268;-75
2024/01/31 14:15:14;;;;;;;16.58;10.85;;;;;;;;;;5028610;28;20685;-75
2024/01/31 14:17:39;;;;;;;16.88;10.60;;;;;;;;;;5035947;28;20238;-74
2024/01/31 14:20:05;;;;;;;20.80;11.82;;;;;;;;;;5029725;28;20644;-75
2024/01/31 14:22:36;;;;;;;18.90;11.52;;;;;;;;;;5033219;28;20273;-75
2024/01/31 14:25:03;;;;;;;15.68;10.95;;;;;;;;;;5046426;28;20231;-74
2024/01/31 14:27:29;;;;;;;16.48;10.75;;;;;;;;;;5030936;28;20268;-75
2024/01/31 14:29:54;;;;;;;19.65;11.98;;;;;;;;;;5040522;28;20312;-74
2024/01/31 14:32:20;;;;;;;18.52;11.52;;;;;;;;;;5041069;28;20319;-74